createdAt,value
2018-07-07T00:00:13.978Z,14.57
2018-07-07T00:02:41.049Z,14.72
2018-07-07T00:05:08.713Z,14.70
2018-07-07T00:07:37.597Z,14.70
2018-07-07T00:10:04.637Z,14.66
2018-07-07T00:12:31.633Z,14.65
2018-07-07T00:14:58.630Z,14.66
2018-07-07T00:17:25.646Z,14.65
2018-07-07T00:19:52.709Z,14.66
2018-07-07T00:22:19.748Z,14.64
2018-07-07T00:24:47.036Z,14.64
2018-07-07T00:27:14.231Z,14.65
2018-07-07T00:29:41.565Z,14.65
2018-07-07T00:32:08.597Z,14.65
2018-07-07T00:34:35.953Z,14.22
2018-07-07T00:37:02.989Z,14.67
2018-07-07T00:39:30.054Z,14.66
2018-07-07T00:41:57.089Z,14.66
2018-07-07T00:44:24.101Z,14.66
2018-07-07T00:46:51.121Z,14.67
2018-07-07T00:49:18.165Z,14.66
2018-07-07T00:51:45.213Z,14.67
2018-07-07T00:54:12.205Z,14.66
2018-07-07T00:56:39.396Z,14.68
2018-07-07T00:59:06.405Z,14.67
2018-07-07T01:01:33.426Z,14.67
2018-07-07T01:04:00.398Z,14.70
2018-07-07T01:06:28.724Z,14.72
2018-07-07T01:08:55.733Z,14.72
2018-07-07T01:11:22.757Z,14.69
2018-07-07T01:13:49.746Z,14.69
2018-07-07T01:16:17.163Z,14.69
2018-07-07T01:18:44.149Z,14.68
2018-07-07T01:21:11.493Z,14.68
2018-07-07T01:23:38.553Z,14.69
2018-07-07T01:26:05.577Z,14.66
2018-07-07T01:28:32.577Z,14.68
2018-07-07T01:30:59.617Z,14.67
2018-07-07T01:33:26.753Z,14.68
2018-07-07T01:35:53.762Z,14.66
2018-07-07T01:38:20.828Z,14.63
2018-07-07T01:40:47.984Z,14.63
2018-07-07T01:43:15.135Z,14.60
2018-07-07T01:45:42.305Z,14.61
2018-07-07T01:48:09.294Z,14.62
2018-07-07T01:50:36.297Z,14.62
2018-07-07T01:53:03.319Z,14.61
2018-07-07T01:55:30.329Z,14.62
2018-07-07T01:57:57.330Z,14.61
2018-07-07T02:00:24.336Z,14.60
2018-07-07T02:02:51.361Z,14.61
2018-07-07T02:05:18.389Z,14.63
2018-07-07T02:07:45.409Z,14.64
2018-07-07T02:10:12.434Z,14.63
2018-07-07T02:12:39.437Z,14.64
2018-07-07T02:15:06.513Z,14.60
2018-07-07T02:17:33.569Z,14.61
2018-07-07T02:20:00.565Z,14.63
2018-07-07T02:22:27.581Z,14.63
2018-07-07T02:24:54.638Z,14.67
2018-07-07T02:27:23.376Z,14.66
2018-07-07T02:29:50.567Z,14.65
2018-07-07T02:32:17.627Z,14.65
2018-07-07T02:34:44.961Z,14.66
2018-07-07T02:37:11.937Z,14.65
2018-07-07T02:39:39.069Z,14.66
2018-07-07T02:42:06.319Z,14.69
2018-07-07T02:44:33.405Z,14.68
2018-07-07T02:47:00.513Z,14.69
2018-07-07T02:49:27.569Z,14.69
2018-07-07T02:51:54.825Z,14.71
2018-07-07T02:54:21.817Z,14.73
2018-07-07T02:56:48.836Z,14.72
2018-07-07T02:59:15.830Z,14.74
2018-07-07T03:01:42.825Z,14.78
2018-07-07T03:04:09.853Z,14.75
2018-07-07T03:06:36.896Z,14.73
2018-07-07T03:09:04.386Z,14.74
2018-07-07T03:11:31.413Z,14.76
2018-07-07T03:13:58.388Z,14.75
2018-07-07T03:16:25.425Z,14.75
2018-07-07T03:18:52.417Z,14.76
2018-07-07T03:21:19.543Z,14.76
2018-07-07T03:23:46.529Z,14.79
2018-07-07T03:26:13.498Z,14.80
2018-07-07T03:28:40.496Z,14.84
2018-07-07T03:31:07.769Z,14.90
2018-07-07T03:33:34.777Z,14.94
2018-07-07T03:36:01.833Z,14.98
2018-07-07T03:38:28.825Z,15.01
2018-07-07T03:40:55.845Z,15.05
2018-07-07T03:43:22.841Z,15.12
2018-07-07T03:45:49.817Z,15.18
2018-07-07T03:48:17.506Z,15.17
2018-07-07T03:50:44.568Z,15.18
2018-07-07T03:53:11.617Z,15.14
2018-07-07T03:55:38.709Z,15.13
2018-07-07T03:58:05.745Z,15.11
2018-07-07T04:00:32.749Z,15.12
2018-07-07T04:02:59.825Z,15.07
2018-07-07T04:05:26.809Z,15.06
2018-07-07T04:07:54.029Z,15.06
2018-07-07T04:10:21.021Z,15.06
2018-07-07T04:12:48.026Z,15.07
2018-07-07T04:15:15.034Z,15.10
2018-07-07T04:17:42.141Z,15.11
2018-07-07T04:20:09.181Z,15.12
2018-07-07T04:22:36.298Z,15.18
2018-07-07T04:25:03.397Z,15.20
2018-07-07T04:27:30.621Z,15.22
2018-07-07T04:29:57.641Z,15.26
2018-07-07T04:32:24.654Z,15.30
2018-07-07T04:34:51.668Z,15.37
2018-07-07T04:37:18.705Z,15.44
2018-07-07T04:39:45.685Z,15.46
2018-07-07T04:42:12.709Z,15.55
2018-07-07T04:44:39.762Z,15.59
2018-07-07T04:47:06.785Z,15.64
2018-07-07T04:49:33.783Z,15.69
2018-07-07T04:52:00.773Z,15.71
2018-07-07T04:54:27.797Z,15.73
2018-07-07T04:56:54.845Z,15.72
2018-07-07T04:59:21.837Z,15.75
2018-07-07T05:01:48.800Z,15.77
2018-07-07T05:04:15.952Z,15.82
2018-07-07T05:06:42.989Z,15.87
2018-07-07T05:09:09.989Z,15.86
2018-07-07T05:11:36.985Z,15.83
2018-07-07T05:14:04.072Z,15.84
2018-07-07T05:16:31.225Z,15.82
2018-07-07T05:18:58.290Z,15.83
2018-07-07T05:21:25.419Z,15.88
2018-07-07T05:23:52.473Z,15.96
2018-07-07T05:26:19.466Z,15.99
2018-07-07T05:28:46.529Z,16.03
2018-07-07T05:31:13.533Z,16.09
2018-07-07T05:33:40.577Z,16.11
2018-07-07T05:36:07.657Z,16.16
2018-07-07T05:38:34.875Z,16.22
2018-07-07T05:41:01.857Z,16.32
2018-07-07T05:43:28.869Z,16.39
2018-07-07T05:45:55.851Z,16.45
2018-07-07T05:48:22.973Z,16.45
2018-07-07T05:50:49.957Z,16.48
2018-07-07T05:53:17.013Z,16.47
2018-07-07T05:55:44.026Z,16.47
2018-07-07T05:58:11.069Z,16.46
2018-07-07T06:00:38.069Z,16.50
2018-07-07T06:03:05.134Z,16.62
2018-07-07T06:05:32.141Z,16.67
2018-07-07T06:07:59.137Z,16.74
2018-07-07T06:10:26.222Z,16.80
2018-07-07T06:12:53.233Z,16.86
2018-07-07T06:15:20.341Z,16.97
2018-07-07T06:17:47.637Z,17.05
2018-07-07T06:20:14.666Z,17.01
2018-07-07T06:22:41.715Z,17.03
2018-07-07T06:25:08.529Z,17.04
2018-07-07T06:27:35.505Z,17.11
2018-07-07T06:30:02.578Z,17.16
2018-07-07T06:32:29.556Z,17.23
2018-07-07T06:34:56.565Z,17.32
2018-07-07T06:37:23.656Z,17.40
2018-07-07T06:39:50.617Z,17.42
2018-07-07T06:42:17.702Z,17.50
2018-07-07T06:44:44.785Z,17.52
2018-07-07T06:47:11.795Z,17.63
2018-07-07T06:49:38.791Z,17.69
2018-07-07T06:52:05.848Z,17.74
2018-07-07T06:54:32.852Z,17.76
2018-07-07T06:56:59.851Z,17.78
2018-07-07T06:59:27.069Z,17.76
2018-07-07T07:01:54.107Z,17.79
2018-07-07T07:04:21.165Z,17.87
2018-07-07T07:06:48.736Z,17.95
2018-07-07T07:09:15.753Z,18.02
2018-07-07T07:11:42.765Z,18.11
2018-07-07T07:14:09.866Z,18.20
2018-07-07T07:16:36.848Z,18.19
2018-07-07T07:19:03.884Z,18.17
2018-07-07T07:21:31.093Z,18.22
2018-07-07T07:23:58.601Z,18.27
2018-07-07T07:26:25.713Z,18.29
2018-07-07T07:28:52.782Z,18.36
2018-07-07T07:31:19.797Z,18.45
2018-07-07T07:33:46.945Z,18.54
2018-07-07T07:36:14.027Z,18.62
2018-07-07T07:38:41.073Z,18.56
2018-07-07T07:41:08.085Z,18.59
2018-07-07T07:43:35.369Z,18.62
2018-07-07T07:46:02.409Z,18.63
2018-07-07T07:48:29.406Z,18.71
2018-07-07T07:50:56.581Z,18.77
2018-07-07T07:53:23.605Z,18.86
2018-07-07T07:55:50.851Z,18.88
2018-07-07T07:58:17.837Z,18.91
2018-07-07T08:00:44.865Z,18.94
2018-07-07T08:03:12.206Z,19.04
2018-07-07T08:05:39.689Z,19.12
2018-07-07T08:08:06.701Z,19.14
2018-07-07T08:10:33.721Z,19.16
2018-07-07T08:13:00.725Z,19.21
2018-07-07T08:15:27.751Z,19.36
2018-07-07T08:17:55.481Z,19.42
2018-07-07T08:20:22.549Z,19.38
2018-07-07T08:22:49.566Z,19.58
2018-07-07T08:25:16.585Z,19.67
2018-07-07T08:27:43.557Z,19.80
2018-07-07T08:30:10.662Z,20.08
2018-07-07T08:32:38.014Z,20.12
2018-07-07T08:35:06.922Z,20.01
2018-07-07T08:37:33.908Z,19.91
2018-07-07T08:40:01.096Z,19.86
2018-07-07T08:42:28.093Z,19.76
2018-07-07T08:44:55.096Z,19.78
2018-07-07T08:47:23.012Z,19.91
2018-07-07T08:49:50.049Z,20.06
2018-07-07T08:52:17.071Z,20.09
2018-07-07T08:54:44.101Z,20.01
2018-07-07T08:57:11.107Z,20.04
2018-07-07T08:59:39.208Z,20.03
2018-07-07T09:02:06.418Z,19.98
2018-07-07T09:04:33.565Z,19.79
2018-07-07T09:07:00.771Z,19.84
2018-07-07T09:09:27.880Z,19.93
2018-07-07T09:11:55.022Z,20.02
2018-07-07T09:14:22.005Z,20.00
2018-07-07T09:16:49.037Z,20.01
2018-07-07T09:19:16.046Z,20.14
2018-07-07T09:21:44.237Z,20.27
2018-07-07T09:24:11.269Z,20.33
2018-07-07T09:26:38.393Z,20.41
2018-07-07T09:29:05.431Z,20.39
2018-07-07T09:31:32.462Z,20.15
2018-07-07T09:33:59.509Z,20.12
2018-07-07T09:36:26.803Z,20.13
2018-07-07T09:38:55.164Z,20.14
2018-07-07T09:41:22.162Z,20.23
2018-07-07T09:43:49.149Z,20.34
2018-07-07T09:46:16.177Z,20.47
2018-07-07T09:48:43.485Z,20.67
2018-07-07T09:51:10.494Z,20.62
2018-07-07T09:53:37.505Z,20.57
2018-07-07T09:56:04.505Z,20.54
2018-07-07T09:58:31.514Z,20.47
2018-07-07T10:00:58.501Z,20.39
2018-07-07T10:03:25.626Z,20.47
2018-07-07T10:05:52.641Z,20.69
2018-07-07T10:08:19.717Z,20.59
2018-07-07T10:10:46.737Z,20.64
2018-07-07T10:13:13.717Z,20.63
2018-07-07T10:15:40.709Z,20.57
2018-07-07T10:18:07.843Z,20.54
2018-07-07T10:20:35.276Z,20.49
2018-07-07T10:23:02.282Z,20.43
2018-07-07T10:25:29.529Z,20.57
2018-07-07T10:27:56.693Z,20.78
2018-07-07T10:30:23.796Z,21.07
2018-07-07T10:32:50.961Z,21.33
2018-07-07T10:35:18.037Z,21.26
2018-07-07T10:37:45.142Z,21.36
2018-07-07T10:40:12.233Z,21.28
2018-07-07T10:42:39.262Z,21.19
2018-07-07T10:45:06.381Z,21.43
2018-07-07T10:47:33.517Z,21.53
2018-07-07T10:50:00.513Z,21.50
2018-07-07T10:52:27.549Z,21.31
2018-07-07T10:54:54.537Z,21.31
2018-07-07T10:57:21.525Z,21.29
2018-07-07T10:59:48.573Z,21.34
2018-07-07T11:02:16.290Z,21.40
2018-07-07T11:04:43.686Z,21.37
2018-07-07T11:07:10.645Z,21.45
2018-07-07T11:09:37.685Z,21.32
2018-07-07T11:12:04.762Z,21.31
2018-07-07T11:14:31.696Z,21.19
2018-07-07T11:16:58.732Z,21.23
2018-07-07T11:19:25.766Z,21.37
2018-07-07T11:21:52.783Z,21.40
2018-07-07T11:24:19.888Z,21.45
2018-07-07T11:26:46.917Z,21.56
2018-07-07T11:29:13.997Z,21.57
2018-07-07T11:31:40.977Z,21.53
2018-07-07T11:34:08.025Z,21.42
2018-07-07T11:36:35.832Z,21.45
2018-07-07T11:39:05.815Z,21.60
2018-07-07T11:41:32.973Z,21.64
2018-07-07T11:43:59.961Z,21.73
2018-07-07T11:46:26.989Z,21.68
2018-07-07T11:48:53.988Z,21.65
2018-07-07T11:51:20.973Z,21.64
2018-07-07T11:53:48.026Z,21.71
2018-07-07T11:56:15.161Z,21.76
2018-07-07T11:58:42.150Z,21.86
2018-07-07T12:01:09.141Z,22.02
2018-07-07T12:03:36.145Z,22.11
2018-07-07T12:06:03.113Z,21.99
2018-07-07T12:08:30.230Z,21.95
2018-07-07T12:10:57.186Z,21.95
2018-07-07T12:13:24.281Z,21.88
2018-07-07T12:15:51.297Z,21.92
2018-07-07T12:18:18.374Z,22.06
2018-07-07T12:20:45.541Z,22.00
2018-07-07T12:23:13.814Z,21.99
2018-07-07T12:25:40.968Z,21.82
2018-07-07T12:28:08.037Z,21.86
2018-07-07T12:30:35.053Z,21.88
2018-07-07T12:33:02.173Z,21.96
2018-07-07T12:35:29.221Z,22.05
2018-07-07T12:37:56.278Z,22.00
2018-07-07T12:40:23.264Z,21.94
2018-07-07T12:42:50.257Z,21.97
2018-07-07T12:45:17.439Z,22.02
2018-07-07T12:47:44.437Z,21.98
2018-07-07T12:50:11.441Z,22.05
2018-07-07T12:52:38.425Z,21.99
2018-07-07T12:55:06.185Z,21.89
2018-07-07T12:57:33.413Z,21.86
2018-07-07T13:00:00.497Z,21.70
2018-07-07T13:02:27.490Z,21.81
2018-07-07T13:04:54.569Z,21.95
2018-07-07T13:07:21.885Z,21.87
2018-07-07T13:09:49.213Z,21.92
2018-07-07T13:12:16.206Z,22.02
2018-07-07T13:14:43.557Z,22.16
2018-07-07T13:17:10.665Z,21.98
2018-07-07T13:19:37.745Z,22.06
2018-07-07T13:22:04.740Z,22.02
2018-07-07T13:24:31.909Z,22.00
2018-07-07T13:26:59.080Z,22.01
2018-07-07T13:29:26.253Z,22.05
2018-07-07T13:31:53.501Z,22.10
2018-07-07T13:34:20.577Z,22.22
2018-07-07T13:36:47.637Z,22.19
2018-07-07T13:39:14.711Z,22.20
2018-07-07T13:41:41.834Z,22.15
2018-07-07T13:44:08.843Z,22.20
2018-07-07T13:46:36.057Z,22.29
2018-07-07T13:49:03.089Z,22.31
2018-07-07T13:51:30.088Z,22.17
2018-07-07T13:53:57.086Z,22.25
2018-07-07T13:56:24.105Z,22.35
2018-07-07T13:58:51.274Z,22.20
2018-07-07T14:01:18.263Z,22.11
2018-07-07T14:03:45.424Z,22.04
2018-07-07T14:06:12.552Z,21.96
2018-07-07T14:08:39.549Z,22.02
2018-07-07T14:11:06.553Z,22.02
2018-07-07T14:13:33.653Z,22.04
2018-07-07T14:16:00.726Z,22.01
2018-07-07T14:18:27.702Z,21.90
2018-07-07T14:20:54.761Z,21.57
2018-07-07T14:23:21.726Z,21.41
2018-07-07T14:25:48.761Z,21.47
2018-07-07T14:28:15.749Z,21.51
2018-07-07T14:30:42.738Z,21.56
2018-07-07T14:33:09.753Z,21.59
2018-07-07T14:35:36.734Z,21.66
2018-07-07T14:38:03.773Z,21.59
2018-07-07T14:40:30.897Z,21.63
2018-07-07T14:42:57.893Z,21.56
2018-07-07T14:45:27.161Z,21.30
2018-07-07T14:47:55.321Z,21.26
2018-07-07T14:50:22.677Z,21.31
2018-07-07T14:52:49.713Z,21.31
2018-07-07T14:55:17.934Z,21.35
2018-07-07T14:57:45.304Z,21.26
2018-07-07T15:00:16.552Z,21.28
2018-07-07T15:02:45.769Z,21.28
2018-07-07T15:05:12.785Z,21.18
2018-07-07T15:07:39.776Z,21.15
2018-07-07T15:10:06.805Z,21.18
2018-07-07T15:12:33.841Z,21.18
2018-07-07T15:15:00.853Z,21.11
2018-07-07T15:17:27.893Z,21.03
2018-07-07T15:19:54.867Z,21.08
2018-07-07T15:22:21.861Z,21.11
2018-07-07T15:24:48.845Z,21.04
2018-07-07T15:27:15.881Z,20.97
2018-07-07T15:29:42.905Z,21.00
2018-07-07T15:32:09.902Z,20.91
2018-07-07T15:34:37.229Z,20.87
2018-07-07T15:37:04.418Z,20.88
2018-07-07T15:39:31.397Z,20.80
2018-07-07T15:41:58.553Z,20.80
2018-07-07T15:44:25.613Z,20.86
2018-07-07T15:46:53.414Z,20.85
2018-07-07T15:49:20.421Z,20.78
2018-07-07T15:51:47.573Z,20.68
2018-07-07T15:54:14.554Z,20.67
2018-07-07T15:56:41.581Z,20.69
2018-07-07T15:59:08.575Z,20.65
2018-07-07T16:01:35.685Z,20.74
2018-07-07T16:04:02.728Z,20.81
2018-07-07T16:06:29.829Z,20.89
2018-07-07T16:08:56.913Z,20.84
2018-07-07T16:11:23.941Z,20.78
2018-07-07T16:13:50.989Z,20.66
2018-07-07T16:16:17.969Z,20.54
2018-07-07T16:18:44.981Z,20.58
2018-07-07T16:21:11.997Z,20.53
2018-07-07T16:23:38.989Z,20.53
2018-07-07T16:26:06.005Z,20.55
2018-07-07T16:28:33.127Z,20.50
2018-07-07T16:31:00.109Z,20.37
2018-07-07T16:33:27.137Z,20.40
2018-07-07T16:35:54.205Z,20.37
2018-07-07T16:38:21.213Z,20.37
2018-07-07T16:40:48.240Z,20.37
2018-07-07T16:43:15.277Z,20.43
2018-07-07T16:45:42.297Z,20.43
2018-07-07T16:48:09.313Z,20.35
2018-07-07T16:50:36.440Z,20.40
2018-07-07T16:53:03.486Z,20.44
2018-07-07T16:55:30.481Z,20.40
2018-07-07T16:57:57.689Z,20.31
2018-07-07T17:00:24.849Z,20.25
2018-07-07T17:02:52.266Z,20.17
2018-07-07T17:05:19.330Z,20.09
2018-07-07T17:07:47.322Z,20.12
2018-07-07T17:10:15.500Z,20.19
2018-07-07T17:12:42.505Z,20.32
2018-07-07T17:15:09.542Z,20.30
2018-07-07T17:17:37.377Z,20.31
2018-07-07T17:20:04.404Z,20.32
2018-07-07T17:22:31.460Z,20.36
2018-07-07T17:24:58.530Z,20.38
2018-07-07T17:27:25.889Z,20.30
2018-07-07T17:29:52.900Z,20.16
2018-07-07T17:32:19.890Z,20.11
2018-07-07T17:34:46.912Z,20.11
2018-07-07T17:37:13.953Z,20.10
2018-07-07T17:39:40.993Z,20.10
2018-07-07T17:42:08.142Z,20.15
2018-07-07T17:44:35.168Z,20.17
2018-07-07T17:47:02.246Z,20.20
2018-07-07T17:49:29.292Z,20.13
2018-07-07T17:51:56.946Z,20.21
2018-07-07T17:54:23.941Z,20.40
2018-07-07T17:56:51.565Z,20.51
2018-07-07T17:59:18.598Z,20.57
2018-07-07T18:01:45.700Z,20.61
2018-07-07T18:04:13.352Z,20.53
2018-07-07T18:06:40.477Z,20.38
2018-07-07T18:09:07.842Z,20.40
2018-07-07T18:11:35.024Z,20.35
2018-07-07T18:14:02.049Z,20.41
2018-07-07T18:16:29.098Z,20.55
2018-07-07T18:18:56.120Z,20.60
2018-07-07T18:21:23.217Z,20.75
2018-07-07T18:23:50.273Z,20.78
2018-07-07T18:26:17.395Z,20.74
2018-07-07T18:28:44.404Z,20.71
2018-07-07T18:31:11.381Z,20.54
2018-07-07T18:33:38.586Z,20.44
2018-07-07T18:36:05.677Z,20.24
2018-07-07T18:38:32.673Z,20.13
2018-07-07T18:41:00.039Z,20.05
2018-07-07T18:43:27.246Z,19.94
2018-07-07T18:45:54.235Z,19.81
2018-07-07T18:48:21.761Z,19.71
2018-07-07T18:50:48.789Z,19.62
2018-07-07T18:53:16.330Z,19.44
2018-07-07T18:55:44.076Z,19.38
2018-07-07T18:58:11.166Z,19.28
2018-07-07T19:00:38.273Z,19.13
2018-07-07T19:03:05.345Z,18.97
2018-07-07T19:05:32.433Z,18.86
2018-07-07T19:07:59.445Z,18.82
2018-07-07T19:10:26.513Z,18.79
2018-07-07T19:12:53.576Z,18.73
2018-07-07T19:15:21.459Z,18.67
2018-07-07T19:17:49.245Z,18.55
2018-07-07T19:20:22.026Z,18.46
2018-07-07T19:24:56.495Z,18.41
2018-07-07T19:27:23.481Z,18.24
2018-07-07T19:29:50.568Z,18.22
2018-07-07T19:32:23.229Z,18.18
2018-07-07T19:34:56.104Z,18.09
2018-07-07T19:37:23.190Z,18.03
2018-07-07T19:39:50.258Z,17.95
2018-07-07T19:42:18.136Z,17.89
2018-07-07T19:44:45.113Z,17.83
2018-07-07T19:47:12.281Z,17.75
2018-07-07T19:49:39.938Z,17.69
2018-07-07T19:52:07.153Z,17.64
2018-07-07T19:54:34.498Z,17.59
2018-07-07T19:57:32.681Z,17.54
2018-07-07T19:59:59.801Z,17.53
2018-07-07T20:02:26.862Z,17.46
2018-07-07T20:04:54.760Z,17.43
2018-07-07T20:07:21.754Z,17.36
2018-07-07T20:09:49.033Z,17.30
2018-07-07T20:12:16.069Z,17.25
2018-07-07T20:14:43.137Z,17.22
2018-07-07T20:17:11.404Z,17.16
2018-07-07T20:20:58.047Z,17.16
2018-07-07T20:23:26.344Z,17.13
2018-07-07T20:25:59.349Z,17.12
2018-07-07T20:28:32.192Z,17.11
2018-07-07T20:30:59.296Z,17.14
2018-07-07T20:33:27.009Z,17.09
2018-07-07T20:35:54.193Z,17.09
2018-07-07T20:38:21.241Z,17.10
2018-07-07T20:40:48.246Z,17.12
2018-07-07T20:43:15.237Z,17.10
2018-07-07T20:45:42.233Z,17.09
2018-07-07T20:48:09.253Z,17.04
2018-07-07T20:50:36.251Z,17.02
2018-07-07T20:53:03.341Z,16.99
2018-07-07T20:55:30.437Z,16.96
2018-07-07T20:57:57.517Z,16.93
2018-07-07T21:00:24.577Z,16.92
2018-07-07T21:02:51.601Z,16.89
2018-07-07T21:05:18.604Z,16.83
2018-07-07T21:07:46.641Z,16.78
2018-07-07T21:10:13.833Z,16.75
2018-07-07T21:12:40.973Z,16.77
2018-07-07T21:15:08.114Z,16.79
2018-07-07T21:17:35.289Z,16.73
2018-07-07T21:20:02.365Z,16.72
2018-07-07T21:22:29.741Z,16.73
2018-07-07T21:24:56.736Z,16.72
2018-07-07T21:27:23.789Z,16.69
2018-07-07T21:29:50.809Z,16.66
2018-07-07T21:32:17.853Z,16.66
2018-07-07T21:34:44.842Z,16.64
2018-07-07T21:37:11.853Z,16.59
2018-07-07T21:39:38.832Z,16.56
2018-07-07T21:42:05.893Z,16.52
2018-07-07T21:44:32.870Z,16.48
2018-07-07T21:46:59.916Z,16.46
2018-07-07T21:49:26.900Z,16.42
2018-07-07T21:51:53.906Z,16.37
2018-07-07T21:54:20.905Z,16.35
2018-07-07T21:56:53.322Z,16.29
2018-07-07T21:59:20.309Z,16.23
2018-07-07T22:01:57.089Z,16.17
2018-07-07T22:04:30.633Z,16.15
2018-07-07T22:07:03.901Z,16.11
2018-07-07T22:09:32.024Z,16.10
2018-07-07T22:11:59.271Z,16.08
2018-07-07T22:14:26.261Z,16.04
2018-07-07T22:16:53.459Z,15.98
2018-07-07T22:19:20.533Z,15.97
2018-07-07T22:21:58.401Z,15.96
2018-07-07T22:24:25.419Z,15.95
2018-07-07T22:27:04.650Z,15.89
2018-07-07T22:29:31.789Z,15.86
2018-07-07T22:32:00.965Z,15.81
2018-07-07T22:34:33.119Z,15.79
2018-07-07T22:37:00.306Z,15.75
2018-07-07T22:39:27.360Z,15.70
2018-07-07T22:41:57.757Z,15.67
2018-07-07T22:44:24.805Z,15.60
2018-07-07T22:46:52.636Z,15.54
2018-07-07T22:49:19.665Z,15.51
2018-07-07T22:51:46.658Z,15.51
2018-07-07T22:54:13.933Z,15.50
2018-07-07T22:56:41.453Z,15.45
2018-07-07T22:59:08.709Z,15.46
2018-07-07T23:01:35.961Z,15.45
2018-07-07T23:04:03.077Z,15.42
2018-07-07T23:06:30.261Z,15.43
2018-07-07T23:08:57.517Z,15.41
2018-07-07T23:11:24.545Z,15.40
2018-07-07T23:13:52.014Z,15.40
2018-07-07T23:16:19.009Z,15.34
2018-07-07T23:18:46.035Z,15.36
2018-07-07T23:21:13.029Z,15.32
2018-07-07T23:23:40.190Z,15.29
2018-07-07T23:26:07.193Z,15.23
2018-07-07T23:28:34.254Z,15.22
2018-07-07T23:31:01.233Z,15.20
2018-07-07T23:33:28.250Z,15.20
2018-07-07T23:35:55.345Z,15.21
2018-07-07T23:38:22.353Z,15.18
2018-07-07T23:40:49.337Z,15.17
2018-07-07T23:43:16.385Z,15.19
2018-07-07T23:45:43.425Z,15.18
2018-07-07T23:48:10.397Z,15.16
2018-07-07T23:50:37.409Z,15.17
2018-07-07T23:53:05.233Z,15.19
2018-07-07T23:55:32.267Z,15.13
2018-07-07T23:57:59.277Z,15.12
